sensor_id;sensor_type;location;lat;lon;timestamp;pressure;altitude;pressure_sealevel;temperature;humidity
57594;BME280;43423;46.510;6.686;2022-11-11T00:01:41;97786.72;;;9.09;84.38
57594;BME280;43423;46.510;6.686;2022-11-11T00:04:09;97792.16;;;8.97;84.69
57594;BME280;43423;46.510;6.686;2022-11-11T00:06:34;97795.00;;;8.93;84.78
57594;BME280;43423;46.510;6.686;2022-11-11T00:09:00;97787.44;;;8.97;84.27
57594;BME280;43423;46.510;6.686;2022-11-11T00:11:25;97799.63;;;8.96;84.21
57594;BME280;43423;46.510;6.686;2022-11-11T00:13:52;97796.88;;;8.96;84.42
57594;BME280;43423;46.510;6.686;2022-11-11T00:16:19;97791.63;;;9.02;84.52
57594;BME280;43423;46.510;6.686;2022-11-11T00:18:45;97792.28;;;9.06;84.57
57594;BME280;43423;46.510;6.686;2022-11-11T00:21:30;97790.75;;;9.05;84.47
57594;BME280;43423;46.510;6.686;2022-11-11T00:24:25;97794.94;;;9.09;84.49
57594;BME280;43423;46.510;6.686;2022-11-11T00:27:11;97791.75;;;9.11;84.42
57594;BME280;43423;46.510;6.686;2022-11-11T00:29:38;97797.56;;;9.13;84.33
57594;BME280;43423;46.510;6.686;2022-11-11T00:32:05;97798.34;;;9.13;84.95
57594;BME280;43423;46.510;6.686;2022-11-11T00:34:56;97795.16;;;9.15;84.40
57594;BME280;43423;46.510;6.686;2022-11-11T00:37:42;97795.41;;;9.20;84.90
57594;BME280;43423;46.510;6.686;2022-11-11T00:40:09;97800.75;;;9.24;85.48
57594;BME280;43423;46.510;6.686;2022-11-11T00:42:36;97796.94;;;9.21;85.34
57594;BME280;43423;46.510;6.686;2022-11-11T00:45:02;97798.81;;;9.25;85.54
57594;BME280;43423;46.510;6.686;2022-11-11T00:47:27;97787.03;;;9.24;86.07
57594;BME280;43423;46.510;6.686;2022-11-11T00:50:14;97805.50;;;9.36;86.25
57594;BME280;43423;46.510;6.686;2022-11-11T00:52:58;97799.06;;;9.43;86.26
57594;BME280;43423;46.510;6.686;2022-11-11T00:55:24;97806.75;;;9.48;86.31
57594;BME280;43423;46.510;6.686;2022-11-11T00:57:50;97810.59;;;9.50;87.08
57594;BME280;43423;46.510;6.686;2022-11-11T01:00:15;97816.53;;;9.49;87.07
57594;BME280;43423;46.510;6.686;2022-11-11T01:02:41;97813.78;;;9.49;87.59
57594;BME280;43423;46.510;6.686;2022-11-11T01:05:06;97815.63;;;9.52;88.92
57594;BME280;43423;46.510;6.686;2022-11-11T01:07:32;97813.09;;;9.45;88.53
57594;BME280;43423;46.510;6.686;2022-11-11T01:09:58;97812.00;;;9.55;87.95
57594;BME280;43423;46.510;6.686;2022-11-11T01:12:23;97822.66;;;9.53;87.35
57594;BME280;43423;46.510;6.686;2022-11-11T01:14:49;97815.41;;;9.46;86.77
57594;BME280;43423;46.510;6.686;2022-11-11T01:17:15;97817.06;;;9.44;87.16
57594;BME280;43423;46.510;6.686;2022-11-11T01:19:41;97818.59;;;9.45;87.10
57594;BME280;43423;46.510;6.686;2022-11-11T01:22:06;97823.44;;;9.41;87.11
57594;BME280;43423;46.510;6.686;2022-11-11T01:24:32;97818.28;;;9.43;87.01
57594;BME280;43423;46.510;6.686;2022-11-11T01:26:57;97818.34;;;9.39;87.01
57594;BME280;43423;46.510;6.686;2022-11-11T01:29:23;97817.59;;;9.39;86.82
57594;BME280;43423;46.510;6.686;2022-11-11T01:31:49;97826.59;;;9.27;86.64
57594;BME280;43423;46.510;6.686;2022-11-11T01:34:14;97815.94;;;9.29;86.24
57594;BME280;43423;46.510;6.686;2022-11-11T01:36:40;97814.50;;;9.24;85.13
57594;BME280;43423;46.510;6.686;2022-11-11T01:39:06;97806.03;;;9.18;85.04
57594;BME280;43423;46.510;6.686;2022-11-11T01:41:34;97780.41;;;8.96;84.79
57594;BME280;43423;46.510;6.686;2022-11-11T01:46:42;97822.88;;;9.33;84.47
57594;BME280;43423;46.510;6.686;2022-11-11T01:49:31;97831.56;;;9.44;85.00
57594;BME280;43423;46.510;6.686;2022-11-11T01:52:10;97823.44;;;9.54;84.42
57594;BME280;43423;46.510;6.686;2022-11-11T01:54:47;97814.88;;;9.51;85.21
57594;BME280;43423;46.510;6.686;2022-11-11T01:58:09;97828.38;;;9.59;85.68
57594;BME280;43423;46.510;6.686;2022-11-11T02:00:16;97831.47;;;9.61;85.93
57594;BME280;43423;46.510;6.686;2022-11-11T02:02:56;97830.16;;;9.65;85.91
57594;BME280;43423;46.510;6.686;2022-11-11T02:05:23;97836.28;;;9.69;85.40
57594;BME280;43423;46.510;6.686;2022-11-11T02:08:11;97835.28;;;9.63;86.13
57594;BME280;43423;46.510;6.686;2022-11-11T02:10:39;97832.56;;;9.63;86.30
57594;BME280;43423;46.510;6.686;2022-11-11T02:13:12;97847.84;;;9.64;85.50
57594;BME280;43423;46.510;6.686;2022-11-11T02:15:57;97836.84;;;9.64;85.18
57594;BME280;43423;46.510;6.686;2022-11-11T02:18:23;97843.13;;;9.65;85.27
57594;BME280;43423;46.510;6.686;2022-11-11T02:20:49;97852.44;;;9.67;85.85
57594;BME280;43423;46.510;6.686;2022-11-11T02:23:25;97839.59;;;9.64;86.09
57594;BME280;43423;46.510;6.686;2022-11-11T02:25:54;97842.44;;;9.61;86.42
57594;BME280;43423;46.510;6.686;2022-11-11T02:28:22;97850.69;;;9.61;86.64
57594;BME280;43423;46.510;6.686;2022-11-11T02:30:49;97852.56;;;9.64;87.25
57594;BME280;43423;46.510;6.686;2022-11-11T02:33:15;97840.78;;;9.63;87.36
57594;BME280;43423;46.510;6.686;2022-11-11T02:35:47;97855.94;;;9.55;88.73
57594;BME280;43423;46.510;6.686;2022-11-11T02:38:21;97838.34;;;9.40;89.49
57594;BME280;43423;46.510;6.686;2022-11-11T02:40:47;97859.44;;;9.43;90.35
57594;BME280;43423;46.510;6.686;2022-11-11T02:43:32;97868.97;;;9.38;90.90
57594;BME280;43423;46.510;6.686;2022-11-11T02:45:59;97865.03;;;9.39;90.97
57594;BME280;43423;46.510;6.686;2022-11-11T02:48:25;97863.16;;;9.36;91.10
57594;BME280;43423;46.510;6.686;2022-11-11T02:50:52;97869.75;;;9.39;90.27
57594;BME280;43423;46.510;6.686;2022-11-11T02:53:18;97878.75;;;9.39;90.50
57594;BME280;43423;46.510;6.686;2022-11-11T02:55:44;97873.25;;;9.39;89.67
57594;BME280;43423;46.510;6.686;2022-11-11T02:58:10;97817.16;;;8.86;88.94
57594;BME280;43423;46.510;6.686;2022-11-11T03:00:36;97830.38;;;8.75;89.39
57594;BME280;43423;46.510;6.686;2022-11-11T03:03:02;97868.28;;;8.92;89.18
57594;BME280;43423;46.510;6.686;2022-11-11T03:05:28;97872.34;;;8.88;88.67
57594;BME280;43423;46.510;6.686;2022-11-11T03:07:54;97874.91;;;8.95;87.97
57594;BME280;43423;46.510;6.686;2022-11-11T03:10:20;97901.22;;;9.21;87.77
57594;BME280;43423;46.510;6.686;2022-11-11T03:12:48;97852.00;;;9.02;88.44
57594;BME280;43423;46.510;6.686;2022-11-11T03:15:14;97891.56;;;9.30;89.02
57594;BME280;43423;46.510;6.686;2022-11-11T03:17:40;97861.66;;;9.06;89.57
57594;BME280;43423;46.510;6.686;2022-11-11T03:20:12;97905.22;;;9.33;89.21
57594;BME280;43423;46.510;6.686;2022-11-11T03:23:14;97898.97;;;9.33;89.50
57594;BME280;43423;46.510;6.686;2022-11-11T03:25:45;97908.88;;;9.43;89.52
57594;BME280;43423;46.510;6.686;2022-11-11T03:28:14;97908.53;;;9.41;88.94
57594;BME280;43423;46.510;6.686;2022-11-11T03:30:42;97907.97;;;9.46;89.00
57594;BME280;43423;46.510;6.686;2022-11-11T03:33:09;97908.09;;;9.42;89.18
57594;BME280;43423;46.510;6.686;2022-11-11T03:35:35;97917.88;;;9.43;89.20
57594;BME280;43423;46.510;6.686;2022-11-11T03:38:02;97917.75;;;9.47;88.81
57594;BME280;43423;46.510;6.686;2022-11-11T03:40:45;97921.94;;;9.51;89.48
57594;BME280;43423;46.510;6.686;2022-11-11T03:43:12;97914.25;;;9.46;88.90
57594;BME280;43423;46.510;6.686;2022-11-11T03:45:37;97916.91;;;9.50;89.27
57594;BME280;43423;46.510;6.686;2022-11-11T03:48:04;97921.75;;;9.59;89.36
57594;BME280;43423;46.510;6.686;2022-11-11T03:50:30;97925.91;;;9.50;88.73
57594;BME280;43423;46.510;6.686;2022-11-11T03:52:56;97935.94;;;9.57;88.64
57594;BME280;43423;46.510;6.686;2022-11-11T03:55:21;97922.91;;;9.45;88.41
57594;BME280;43423;46.510;6.686;2022-11-11T03:57:47;97927.44;;;9.51;88.04
57594;BME280;43423;46.510;6.686;2022-11-11T04:00:21;97928.22;;;9.52;88.33
57594;BME280;43423;46.510;6.686;2022-11-11T04:02:48;97933.75;;;9.65;88.39
57594;BME280;43423;46.510;6.686;2022-11-11T04:05:32;97931.31;;;9.67;88.24
57594;BME280;43423;46.510;6.686;2022-11-11T04:08:18;97936.06;;;9.79;88.40
57594;BME280;43423;46.510;6.686;2022-11-11T04:11:06;97946.00;;;9.89;88.77
57594;BME280;43423;46.510;6.686;2022-11-11T04:13:34;97935.84;;;9.86;88.46
57594;BME280;43423;46.510;6.686;2022-11-11T04:16:19;97946.44;;;9.88;88.19
57594;BME280;43423;46.510;6.686;2022-11-11T04:18:45;97943.56;;;9.91;87.20
57594;BME280;43423;46.510;6.686;2022-11-11T04:21:29;97949.94;;;9.88;87.71
57594;BME280;43423;46.510;6.686;2022-11-11T04:24:15;97952.25;;;9.90;87.65
57594;BME280;43423;46.510;6.686;2022-11-11T04:27:04;97946.06;;;9.86;88.23
57594;BME280;43423;46.510;6.686;2022-11-11T04:29:30;97950.47;;;9.83;88.35
57594;BME280;43423;46.510;6.686;2022-11-11T04:34:45;97953.78;;;9.91;87.70
57594;BME280;43423;46.510;6.686;2022-11-11T04:37:12;97954.22;;;9.89;87.52
57594;BME280;43423;46.510;6.686;2022-11-11T04:39:38;97952.34;;;9.86;87.92
57594;BME280;43423;46.510;6.686;2022-11-11T04:42:22;97957.06;;;9.86;87.60
57594;BME280;43423;46.510;6.686;2022-11-11T04:44:49;97962.69;;;9.82;87.80
57594;BME280;43423;46.510;6.686;2022-11-11T04:47:33;97962.56;;;9.73;88.11
57594;BME280;43423;46.510;6.686;2022-11-11T04:49:58;97958.34;;;9.68;88.41
57594;BME280;43423;46.510;6.686;2022-11-11T04:52:24;97957.25;;;9.66;88.38
57594;BME280;43423;46.510;6.686;2022-11-11T04:54:54;97960.00;;;9.66;88.46
57594;BME280;43423;46.510;6.686;2022-11-11T04:57:41;97960.78;;;9.66;88.03
57594;BME280;43423;46.510;6.686;2022-11-11T05:00:12;97961.78;;;9.72;88.20
57594;BME280;43423;46.510;6.686;2022-11-11T05:02:38;97944.16;;;9.57;88.00
57594;BME280;43423;46.510;6.686;2022-11-11T05:05:23;97951.66;;;9.69;87.79
57594;BME280;43423;46.510;6.686;2022-11-11T05:07:49;97954.06;;;9.67;87.81
57594;BME280;43423;46.510;6.686;2022-11-11T05:10:33;97948.38;;;9.74;87.82
57594;BME280;43423;46.510;6.686;2022-11-11T05:12:59;97936.38;;;9.68;87.85
57594;BME280;43423;46.510;6.686;2022-11-11T05:15:45;97951.69;;;9.82;87.78
57594;BME280;43423;46.510;6.686;2022-11-11T05:18:31;97942.56;;;9.72;87.57
57594;BME280;43423;46.510;6.686;2022-11-11T05:21:22;97942.44;;;9.76;87.98
57594;BME280;43423;46.510;6.686;2022-11-11T05:23:50;97935.50;;;9.71;87.93
57594;BME280;43423;46.510;6.686;2022-11-11T05:26:34;97960.38;;;9.81;87.67
57594;BME280;43423;46.510;6.686;2022-11-11T05:29:00;97956.94;;;9.76;87.93
57594;BME280;43423;46.510;6.686;2022-11-11T05:31:27;97956.69;;;9.71;88.86
57594;BME280;43423;46.510;6.686;2022-11-11T05:33:53;97952.41;;;9.70;89.38
57594;BME280;43423;46.510;6.686;2022-11-11T05:36:19;97953.75;;;9.65;89.22
57594;BME280;43423;46.510;6.686;2022-11-11T05:38:44;97955.16;;;9.70;89.36
57594;BME280;43423;46.510;6.686;2022-11-11T05:41:10;97959.22;;;9.65;89.61
57594;BME280;43423;46.510;6.686;2022-11-11T05:43:36;97954.38;;;9.57;89.54
57594;BME280;43423;46.510;6.686;2022-11-11T05:46:02;97956.34;;;9.56;89.71
57594;BME280;43423;46.510;6.686;2022-11-11T05:48:30;97958.66;;;9.58;89.43
57594;BME280;43423;46.510;6.686;2022-11-11T05:50:57;97934.22;;;9.34;90.25
57594;BME280;43423;46.510;6.686;2022-11-11T05:53:23;97954.22;;;9.47;90.05
57594;BME280;43423;46.510;6.686;2022-11-11T05:55:49;97964.34;;;9.50;90.37
57594;BME280;43423;46.510;6.686;2022-11-11T05:58:19;97954.22;;;9.47;90.57
57594;BME280;43423;46.510;6.686;2022-11-11T06:00:45;97956.63;;;9.45;90.80
57594;BME280;43423;46.510;6.686;2022-11-11T06:03:11;97962.13;;;9.45;91.02
57594;BME280;43423;46.510;6.686;2022-11-11T06:05:37;97960.16;;;9.46;90.65
57594;BME280;43423;46.510;6.686;2022-11-11T06:08:02;97966.59;;;9.39;91.17
57594;BME280;43423;46.510;6.686;2022-11-11T06:10:28;97962.50;;;9.31;91.55
57594;BME280;43423;46.510;6.686;2022-11-11T06:12:58;97976.47;;;9.37;91.56
57594;BME280;43423;46.510;6.686;2022-11-11T06:15:27;97965.59;;;9.33;91.36
57594;BME280;43423;46.510;6.686;2022-11-11T06:17:53;97969.31;;;9.27;91.54
57594;BME280;43423;46.510;6.686;2022-11-11T06:20:19;97973.16;;;9.29;91.73
57594;BME280;43423;46.510;6.686;2022-11-11T06:22:45;97968.09;;;9.28;91.97
57594;BME280;43423;46.510;6.686;2022-11-11T06:25:28;97973.91;;;9.30;91.86
57594;BME280;43423;46.510;6.686;2022-11-11T06:28:13;97963.13;;;9.22;92.69
57594;BME280;43423;46.510;6.686;2022-11-11T06:30:39;97977.88;;;9.29;92.88
57594;BME280;43423;46.510;6.686;2022-11-11T06:33:05;97982.16;;;9.30;92.51
57594;BME280;43423;46.510;6.686;2022-11-11T06:35:41;97988.66;;;9.36;92.37
57594;BME280;43423;46.510;6.686;2022-11-11T06:38:07;97980.09;;;9.34;92.45
57594;BME280;43423;46.510;6.686;2022-11-11T06:40:33;97989.00;;;9.38;92.42
57594;BME280;43423;46.510;6.686;2022-11-11T06:42:59;97989.00;;;9.38;91.83
57594;BME280;43423;46.510;6.686;2022-11-11T06:45:27;97990.66;;;9.35;91.27
57594;BME280;43423;46.510;6.686;2022-11-11T06:47:52;97994.31;;;9.45;90.80
57594;BME280;43423;46.510;6.686;2022-11-11T06:50:18;97996.34;;;9.57;90.34
57594;BME280;43423;46.510;6.686;2022-11-11T06:52:44;97989.31;;;9.56;90.85
57594;BME280;43423;46.510;6.686;2022-11-11T06:55:10;97997.53;;;9.56;90.84
57594;BME280;43423;46.510;6.686;2022-11-11T06:57:36;97995.84;;;9.46;91.14
57594;BME280;43423;46.510;6.686;2022-11-11T07:00:03;98005.19;;;9.48;90.60
57594;BME280;43423;46.510;6.686;2022-11-11T07:02:29;98004.72;;;9.66;90.39
57594;BME280;43423;46.510;6.686;2022-11-11T07:04:55;98007.25;;;9.73;89.83
57594;BME280;43423;46.510;6.686;2022-11-11T07:07:21;98011.34;;;9.82;89.49
57594;BME280;43423;46.510;6.686;2022-11-11T07:09:46;98005.09;;;9.94;89.66
57594;BME280;43423;46.510;6.686;2022-11-11T07:12:12;98000.22;;;10.14;88.59
57594;BME280;43423;46.510;6.686;2022-11-11T07:14:38;98008.50;;;10.27;87.86
57594;BME280;43423;46.510;6.686;2022-11-11T07:17:05;98006.72;;;10.20;86.53
57594;BME280;43423;46.510;6.686;2022-11-11T07:19:31;98002.91;;;9.89;85.67
57594;BME280;43423;46.510;6.686;2022-11-11T07:21:56;98001.47;;;9.84;85.51
57594;BME280;43423;46.510;6.686;2022-11-11T07:24:22;97997.22;;;9.96;84.53
57594;BME280;43423;46.510;6.686;2022-11-11T07:26:48;98010.91;;;10.25;84.23
57594;BME280;43423;46.510;6.686;2022-11-11T07:29:13;98003.78;;;10.27;84.68
57594;BME280;43423;46.510;6.686;2022-11-11T07:31:40;98000.13;;;10.30;83.48
57594;BME280;43423;46.510;6.686;2022-11-11T07:34:06;98005.97;;;10.32;83.45
57594;BME280;43423;46.510;6.686;2022-11-11T07:36:32;97998.84;;;10.35;83.47
57594;BME280;43423;46.510;6.686;2022-11-11T07:38:58;98005.41;;;10.50;84.12
57594;BME280;43423;46.510;6.686;2022-11-11T07:41:23;98003.97;;;10.71;82.50
57594;BME280;43423;46.510;6.686;2022-11-11T07:43:49;98014.44;;;10.63;83.85
57594;BME280;43423;46.510;6.686;2022-11-11T07:46:15;98020.50;;;10.71;84.10
57594;BME280;43423;46.510;6.686;2022-11-11T07:48:41;98019.16;;;10.88;83.77
57594;BME280;43423;46.510;6.686;2022-11-11T07:51:06;98026.94;;;11.03;81.94
57594;BME280;43423;46.510;6.686;2022-11-11T07:53:32;98036.75;;;11.04;81.57
57594;BME280;43423;46.510;6.686;2022-11-11T07:55:57;98027.88;;;11.22;80.89
57594;BME280;43423;46.510;6.686;2022-11-11T07:58:23;98032.06;;;11.39;81.23
57594;BME280;43423;46.510;6.686;2022-11-11T08:00:49;98032.34;;;11.54;80.94
57594;BME280;43423;46.510;6.686;2022-11-11T08:03:14;98032.31;;;11.88;79.31
57594;BME280;43423;46.510;6.686;2022-11-11T08:05:40;98043.66;;;11.90;78.86
57594;BME280;43423;46.510;6.686;2022-11-11T08:08:07;98047.91;;;12.35;78.72
57594;BME280;43423;46.510;6.686;2022-11-11T08:10:34;98039.75;;;12.32;76.23
57594;BME280;43423;46.510;6.686;2022-11-11T08:13:01;98048.69;;;12.36;75.16
57594;BME280;43423;46.510;6.686;2022-11-11T08:15:45;98046.19;;;12.28;75.71
57594;BME280;43423;46.510;6.686;2022-11-11T08:18:11;98046.34;;;11.68;78.63
57594;BME280;43423;46.510;6.686;2022-11-11T08:20:37;98045.13;;;12.04;78.48
57594;BME280;43423;46.510;6.686;2022-11-11T08:23:03;98056.59;;;12.24;77.04
57594;BME280;43423;46.510;6.686;2022-11-11T08:25:32;98056.31;;;12.32;76.92
57594;BME280;43423;46.510;6.686;2022-11-11T08:28:00;98059.88;;;12.10;75.59
57594;BME280;43423;46.510;6.686;2022-11-11T08:30:26;98055.25;;;12.07;76.23
57594;BME280;43423;46.510;6.686;2022-11-11T08:32:59;98061.47;;;11.98;75.87
57594;BME280;43423;46.510;6.686;2022-11-11T08:35:26;98052.72;;;11.78;75.89
57594;BME280;43423;46.510;6.686;2022-11-11T08:37:52;98063.75;;;11.78;75.82
57594;BME280;43423;46.510;6.686;2022-11-11T08:40:18;98068.09;;;12.01;70.42
57594;BME280;43423;46.510;6.686;2022-11-11T08:42:44;98068.91;;;12.11;71.53
57594;BME280;43423;46.510;6.686;2022-11-11T08:45:10;98054.63;;;12.25;69.39
57594;BME280;43423;46.510;6.686;2022-11-11T08:47:35;98075.28;;;12.51;68.32
57594;BME280;43423;46.510;6.686;2022-11-11T08:50:02;98072.78;;;12.44;68.04
57594;BME280;43423;46.510;6.686;2022-11-11T08:52:28;98073.28;;;12.52;67.72
57594;BME280;43423;46.510;6.686;2022-11-11T08:54:54;98076.28;;;12.36;66.08
57594;BME280;43423;46.510;6.686;2022-11-11T08:57:19;98079.53;;;12.43;65.48
57594;BME280;43423;46.510;6.686;2022-11-11T08:59:45;98078.97;;;12.48;66.01
57594;BME280;43423;46.510;6.686;2022-11-11T09:02:12;98082.56;;;12.36;65.36
57594;BME280;43423;46.510;6.686;2022-11-11T09:04:38;98080.84;;;12.61;66.51
57594;BME280;43423;46.510;6.686;2022-11-11T09:07:05;98084.38;;;12.61;64.95
57594;BME280;43423;46.510;6.686;2022-11-11T09:09:31;98087.22;;;12.79;64.91
57594;BME280;43423;46.510;6.686;2022-11-11T09:11:56;98082.00;;;12.72;64.80
57594;BME280;43423;46.510;6.686;2022-11-11T09:14:22;98082.47;;;12.80;65.55
57594;BME280;43423;46.510;6.686;2022-11-11T09:16:48;98083.13;;;12.31;65.96
57594;BME280;43423;46.510;6.686;2022-11-11T09:19:14;98093.06;;;12.81;66.78
57594;BME280;43423;46.510;6.686;2022-11-11T09:21:39;98094.13;;;12.84;65.38
57594;BME280;43423;46.510;6.686;2022-11-11T09:24:05;98093.91;;;13.09;64.20
57594;BME280;43423;46.510;6.686;2022-11-11T09:26:31;98095.84;;;13.22;65.24
57594;BME280;43423;46.510;6.686;2022-11-11T09:28:57;98097.91;;;13.08;65.29
57594;BME280;43423;46.510;6.686;2022-11-11T09:31:22;98102.81;;;13.04;65.91
57594;BME280;43423;46.510;6.686;2022-11-11T09:33:51;98095.16;;;13.08;65.14
57594;BME280;43423;46.510;6.686;2022-11-11T09:36:18;98099.31;;;12.73;66.35
57594;BME280;43423;46.510;6.686;2022-11-11T09:38:44;98097.31;;;13.13;66.01
57594;BME280;43423;46.510;6.686;2022-11-11T09:50:02;98114.72;;;13.23;65.36
57594;BME280;43423;46.510;6.686;2022-11-11T09:52:42;98113.91;;;13.13;65.81
57594;BME280;43423;46.510;6.686;2022-11-11T09:55:19;98115.72;;;13.07;65.20
57594;BME280;43423;46.510;6.686;2022-11-11T09:57:57;98111.50;;;13.34;65.33
57594;BME280;43423;46.510;6.686;2022-11-11T10:00:32;98109.84;;;13.27;65.48
57594;BME280;43423;46.510;6.686;2022-11-11T10:03:20;98104.66;;;13.66;65.76
57594;BME280;43423;46.510;6.686;2022-11-11T10:08:26;98113.91;;;13.90;64.55
57594;BME280;43423;46.510;6.686;2022-11-11T10:10:54;98110.66;;;13.55;64.77
57594;BME280;43423;46.510;6.686;2022-11-11T10:13:28;98107.41;;;13.38;64.85
57594;BME280;43423;46.510;6.686;2022-11-11T10:21:43;98093.84;;;13.22;67.25
57594;BME280;43423;46.510;6.686;2022-11-11T10:24:27;98107.16;;;13.14;66.62
57594;BME280;43423;46.510;6.686;2022-11-11T10:26:53;98102.91;;;13.23;66.38
57594;BME280;43423;46.510;6.686;2022-11-11T10:29:21;98091.00;;;13.44;66.11
57594;BME280;43423;46.510;6.686;2022-11-11T10:31:57;98104.44;;;13.33;66.22
57594;BME280;43423;46.510;6.686;2022-11-11T10:34:31;98080.22;;;13.37;66.42
57594;BME280;43423;46.510;6.686;2022-11-11T10:36:58;98096.84;;;13.74;65.34
57594;BME280;43423;46.510;6.686;2022-11-11T10:39:40;98093.63;;;13.17;67.01
57594;BME280;43423;46.510;6.686;2022-11-11T10:42:16;98087.59;;;13.49;65.13
57594;BME280;43423;46.510;6.686;2022-11-11T10:44:42;98084.53;;;13.65;65.30
57594;BME280;43423;46.510;6.686;2022-11-11T10:47:50;98084.84;;;13.49;65.88
57594;BME280;43423;46.510;6.686;2022-11-11T10:50:25;98079.34;;;13.86;66.50
57594;BME280;43423;46.510;6.686;2022-11-11T10:53:03;98075.97;;;14.00;64.83
57594;BME280;43423;46.510;6.686;2022-11-11T10:55:42;98074.09;;;14.15;65.11
57594;BME280;43423;46.510;6.686;2022-11-11T11:00:42;98066.13;;;14.08;64.65
57594;BME280;43423;46.510;6.686;2022-11-11T11:03:23;98057.84;;;13.99;64.73
57594;BME280;43423;46.510;6.686;2022-11-11T11:06:07;98057.38;;;13.82;65.06
57594;BME280;43423;46.510;6.686;2022-11-11T11:08:43;98039.72;;;13.80;64.64
57594;BME280;43423;46.510;6.686;2022-11-11T11:11:18;98040.94;;;14.06;64.93
57594;BME280;43423;46.510;6.686;2022-11-11T11:13:56;98032.63;;;13.97;65.55
57594;BME280;43423;46.510;6.686;2022-11-11T11:16:31;98034.72;;;14.20;64.04
57594;BME280;43423;46.510;6.686;2022-11-11T11:26:55;98018.00;;;14.24;64.64
57594;BME280;43423;46.510;6.686;2022-11-11T11:29:40;98023.94;;;14.50;64.41
57594;BME280;43423;46.510;6.686;2022-11-11T11:32:18;98011.41;;;14.12;64.00
57594;BME280;43423;46.510;6.686;2022-11-11T11:34:50;97994.44;;;14.38;63.84
57594;BME280;43423;46.510;6.686;2022-11-11T11:37:19;98009.63;;;14.51;63.33
57594;BME280;43423;46.510;6.686;2022-11-11T11:39:45;98013.59;;;13.90;64.60
57594;BME280;43423;46.510;6.686;2022-11-11T11:44:52;97998.09;;;13.83;64.57
57594;BME280;43423;46.510;6.686;2022-11-11T11:50:02;98008.03;;;14.60;64.05
57594;BME280;43423;46.510;6.686;2022-11-11T11:55:15;97989.66;;;14.38;64.78
57594;BME280;43423;46.510;6.686;2022-11-11T12:00:20;97988.59;;;14.36;64.45
57594;BME280;43423;46.510;6.686;2022-11-11T12:03:15;97982.59;;;14.46;65.46
57594;BME280;43423;46.510;6.686;2022-11-11T12:05:46;97983.28;;;14.65;65.82
57594;BME280;43423;46.510;6.686;2022-11-11T12:08:36;97984.97;;;14.96;65.07
57594;BME280;43423;46.510;6.686;2022-11-11T12:14:02;97967.91;;;14.88;67.00
57594;BME280;43423;46.510;6.686;2022-11-11T12:16:49;97966.47;;;15.02;65.80
57594;BME280;43423;46.510;6.686;2022-11-11T12:19:41;97970.16;;;14.99;65.21
57594;BME280;43423;46.510;6.686;2022-11-11T12:24:56;97962.94;;;15.01;65.56
57594;BME280;43423;46.510;6.686;2022-11-11T12:30:07;97953.50;;;14.51;66.57
57594;BME280;43423;46.510;6.686;2022-11-11T12:35:20;97954.81;;;15.36;65.53
57594;BME280;43423;46.510;6.686;2022-11-11T12:40:48;97956.63;;;14.68;66.22
57594;BME280;43423;46.510;6.686;2022-11-11T12:48:52;97948.91;;;14.48;66.85
57594;BME280;43423;46.510;6.686;2022-11-11T12:51:32;97945.22;;;14.42;67.71
57594;BME280;43423;46.510;6.686;2022-11-11T12:56:48;97938.81;;;13.84;69.39
57594;BME280;43423;46.510;6.686;2022-11-11T13:02:14;97924.88;;;14.12;70.35
57594;BME280;43423;46.510;6.686;2022-11-11T13:05:00;97927.13;;;14.32;70.04
57594;BME280;43423;46.510;6.686;2022-11-11T13:15:44;97913.28;;;14.32;69.59
57594;BME280;43423;46.510;6.686;2022-11-11T13:18:16;97913.50;;;14.52;68.28
57594;BME280;43423;46.510;6.686;2022-11-11T13:20:57;97913.63;;;14.24;68.04
57594;BME280;43423;46.510;6.686;2022-11-11T13:23:25;97912.88;;;14.24;69.28
57594;BME280;43423;46.510;6.686;2022-11-11T13:25:55;97908.97;;;13.88;70.84
57594;BME280;43423;46.510;6.686;2022-11-11T13:28:38;97907.31;;;13.82;70.91
57594;BME280;43423;46.510;6.686;2022-11-11T13:31:18;97911.72;;;14.07;71.47
57594;BME280;43423;46.510;6.686;2022-11-11T13:33:52;97915.34;;;14.22;69.68
57594;BME280;43423;46.510;6.686;2022-11-11T13:36:23;97910.72;;;14.19;71.20
57594;BME280;43423;46.510;6.686;2022-11-11T13:41:33;97907.25;;;14.00;71.03
57594;BME280;43423;46.510;6.686;2022-11-11T13:44:06;97904.00;;;14.11;70.42
57594;BME280;43423;46.510;6.686;2022-11-11T13:46:39;97898.75;;;14.13;69.66
57594;BME280;43423;46.510;6.686;2022-11-11T13:49:08;97903.94;;;14.20;70.37
57594;BME280;43423;46.510;6.686;2022-11-11T13:51:42;97898.47;;;14.11;71.11
57594;BME280;43423;46.510;6.686;2022-11-11T13:54:28;97890.53;;;13.94;71.24
57594;BME280;43423;46.510;6.686;2022-11-11T13:57:21;97900.53;;;13.92;71.72
57594;BME280;43423;46.510;6.686;2022-11-11T13:59:59;97893.91;;;13.99;71.05
57594;BME280;43423;46.510;6.686;2022-11-11T14:02:28;97887.50;;;13.74;72.00
57594;BME280;43423;46.510;6.686;2022-11-11T14:12:45;97885.50;;;13.84;71.59
57594;BME280;43423;46.510;6.686;2022-11-11T14:20:44;97895.06;;;14.16;70.47
57594;BME280;43423;46.510;6.686;2022-11-11T14:25:43;97895.81;;;13.83;70.99
57594;BME280;43423;46.510;6.686;2022-11-11T14:30:51;97894.47;;;13.42;72.49
57594;BME280;43423;46.510;6.686;2022-11-11T14:33:26;97893.88;;;13.47;73.02
57594;BME280;43423;46.510;6.686;2022-11-11T14:36:21;97889.44;;;13.40;72.58
57594;BME280;43423;46.510;6.686;2022-11-11T14:52:33;97900.03;;;13.24;73.89
57594;BME280;43423;46.510;6.686;2022-11-11T14:57:34;97888.34;;;12.92;74.26
57594;BME280;43423;46.510;6.686;2022-11-11T15:00:08;97886.81;;;13.00;74.40
57594;BME280;43423;46.510;6.686;2022-11-11T15:02:41;97884.66;;;12.95;74.88
57594;BME280;43423;46.510;6.686;2022-11-11T15:05:16;97884.81;;;12.92;75.01
57594;BME280;43423;46.510;6.686;2022-11-11T15:07:58;97892.03;;;12.89;75.29
57594;BME280;43423;46.510;6.686;2022-11-11T15:10:34;97890.16;;;12.95;75.78
57594;BME280;43423;46.510;6.686;2022-11-11T15:27:17;97886.75;;;12.54;76.21
57594;BME280;43423;46.510;6.686;2022-11-11T15:30:04;97891.00;;;12.37;77.04
57594;BME280;43423;46.510;6.686;2022-11-11T15:35:15;97906.19;;;12.33;77.84
57594;BME280;43423;46.510;6.686;2022-11-11T15:37:54;97897.94;;;12.42;78.00